sensor_id;sensor_type;location;lat;lon;timestamp;P1;durP1;ratioP1;P2;durP2;ratioP2
9208;SDS011;4639;48.862;9.188;2023-07-24T00:00:10;530.03;;;490.13;;
9208;SDS011;4639;48.862;9.188;2023-07-24T00:02:36;455.05;;;424.95;;
9208;SDS011;4639;48.862;9.188;2023-07-24T00:05:02;503.17;;;469.15;;
9208;SDS011;4639;48.862;9.188;2023-07-24T00:07:27;577.03;;;536.58;;
9208;SDS011;4639;48.862;9.188;2023-07-24T00:09:53;731.17;;;672.35;;
9208;SDS011;4639;48.862;9.188;2023-07-24T00:12:20;680.33;;;627.55;;
9208;SDS011;4639;48.862;9.188;2023-07-24T00:14:46;630.20;;;582.13;;
9208;SDS011;4639;48.862;9.188;2023-07-24T00:17:12;622.95;;;573.38;;
9208;SDS011;4639;48.862;9.188;2023-07-24T00:19:37;544.58;;;503.65;;
9208;SDS011;4639;48.862;9.188;2023-07-24T00:22:03;319.00;;;297.58;;
9208;SDS011;4639;48.862;9.188;2023-07-24T00:24:29;280.33;;;263.75;;
9208;SDS011;4639;48.862;9.188;2023-07-24T00:26:56;311.33;;;292.83;;
9208;SDS011;4639;48.862;9.188;2023-07-24T00:29:21;345.80;;;324.13;;
9208;SDS011;4639;48.862;9.188;2023-07-24T00:31:47;250.02;;;233.88;;
9208;SDS011;4639;48.862;9.188;2023-07-24T00:34:13;306.38;;;286.35;;
9208;SDS011;4639;48.862;9.188;2023-07-24T00:36:38;334.80;;;313.27;;
9208;SDS011;4639;48.862;9.188;2023-07-24T00:39:04;344.65;;;323.63;;
9208;SDS011;4639;48.862;9.188;2023-07-24T00:41:29;425.95;;;398.08;;
9208;SDS011;4639;48.862;9.188;2023-07-24T00:43:55;435.52;;;405.95;;
9208;SDS011;4639;48.862;9.188;2023-07-24T00:46:21;463.00;;;431.50;;
9208;SDS011;4639;48.862;9.188;2023-07-24T00:48:46;391.58;;;366.20;;
9208;SDS011;4639;48.862;9.188;2023-07-24T00:51:12;409.67;;;383.13;;
9208;SDS011;4639;48.862;9.188;2023-07-24T00:53:38;385.73;;;360.15;;
9208;SDS011;4639;48.862;9.188;2023-07-24T00:56:04;384.60;;;358.48;;
9208;SDS011;4639;48.862;9.188;2023-07-24T00:58:30;369.50;;;344.30;;
9208;SDS011;4639;48.862;9.188;2023-07-24T01:00:56;355.10;;;331.35;;
9208;SDS011;4639;48.862;9.188;2023-07-24T01:03:22;396.50;;;368.27;;
9208;SDS011;4639;48.862;9.188;2023-07-24T01:05:55;415.70;;;386.25;;
9208;SDS011;4639;48.862;9.188;2023-07-24T01:08:21;369.70;;;344.77;;
9208;SDS011;4639;48.862;9.188;2023-07-24T01:10:47;341.60;;;319.30;;
9208;SDS011;4639;48.862;9.188;2023-07-24T01:13:17;343.20;;;321.35;;
9208;SDS011;4639;48.862;9.188;2023-07-24T01:15:56;362.55;;;339.60;;
9208;SDS011;4639;48.862;9.188;2023-07-24T01:18:28;366.48;;;342.60;;
9208;SDS011;4639;48.862;9.188;2023-07-24T01:20:56;333.55;;;312.27;;
9208;SDS011;4639;48.862;9.188;2023-07-24T01:23:37;341.02;;;319.15;;
9208;SDS011;4639;48.862;9.188;2023-07-24T01:26:11;316.98;;;297.33;;
9208;SDS011;4639;48.862;9.188;2023-07-24T01:28:37;318.27;;;298.15;;
9208;SDS011;4639;48.862;9.188;2023-07-24T01:31:04;315.55;;;295.90;;
9208;SDS011;4639;48.862;9.188;2023-07-24T01:33:30;325.33;;;304.60;;
9208;SDS011;4639;48.862;9.188;2023-07-24T01:35:58;339.05;;;317.20;;
9208;SDS011;4639;48.862;9.188;2023-07-24T01:38:25;309.70;;;289.58;;
9208;SDS011;4639;48.862;9.188;2023-07-24T01:40:52;327.27;;;305.75;;
9208;SDS011;4639;48.862;9.188;2023-07-24T01:43:19;293.52;;;274.58;;
9208;SDS011;4639;48.862;9.188;2023-07-24T01:45:44;275.58;;;257.50;;
9208;SDS011;4639;48.862;9.188;2023-07-24T01:48:16;297.52;;;277.67;;
9208;SDS011;4639;48.862;9.188;2023-07-24T01:50:42;303.55;;;282.63;;
9208;SDS011;4639;48.862;9.188;2023-07-24T01:53:07;290.60;;;271.08;;
9208;SDS011;4639;48.862;9.188;2023-07-24T01:55:34;389.88;;;366.17;;
9208;SDS011;4639;48.862;9.188;2023-07-24T01:58:00;374.92;;;352.05;;
9208;SDS011;4639;48.862;9.188;2023-07-24T02:00:25;377.98;;;354.77;;
9208;SDS011;4639;48.862;9.188;2023-07-24T02:02:51;406.20;;;380.10;;
9208;SDS011;4639;48.862;9.188;2023-07-24T02:05:16;359.05;;;335.90;;
9208;SDS011;4639;48.862;9.188;2023-07-24T02:07:42;417.48;;;390.10;;
9208;SDS011;4639;48.862;9.188;2023-07-24T02:10:08;381.58;;;356.95;;
9208;SDS011;4639;48.862;9.188;2023-07-24T02:12:34;394.85;;;369.10;;
9208;SDS011;4639;48.862;9.188;2023-07-24T02:14:59;423.95;;;395.70;;
9208;SDS011;4639;48.862;9.188;2023-07-24T02:17:25;438.50;;;409.98;;
9208;SDS011;4639;48.862;9.188;2023-07-24T02:19:51;443.52;;;413.50;;
9208;SDS011;4639;48.862;9.188;2023-07-24T02:22:16;442.42;;;411.63;;
9208;SDS011;4639;48.862;9.188;2023-07-24T02:24:42;459.60;;;426.42;;
9208;SDS011;4639;48.862;9.188;2023-07-24T02:27:07;432.80;;;401.40;;
9208;SDS011;4639;48.862;9.188;2023-07-24T02:29:38;438.17;;;405.55;;
9208;SDS011;4639;48.862;9.188;2023-07-24T02:32:03;454.10;;;420.60;;
9208;SDS011;4639;48.862;9.188;2023-07-24T02:34:29;409.80;;;379.10;;
9208;SDS011;4639;48.862;9.188;2023-07-24T02:36:55;415.50;;;383.52;;
9208;SDS011;4639;48.862;9.188;2023-07-24T02:39:20;378.70;;;353.73;;
9208;SDS011;4639;48.862;9.188;2023-07-24T02:41:49;428.73;;;399.80;;
9208;SDS011;4639;48.862;9.188;2023-07-24T02:44:15;387.17;;;360.88;;
9208;SDS011;4639;48.862;9.188;2023-07-24T02:46:40;420.90;;;392.63;;
9208;SDS011;4639;48.862;9.188;2023-07-24T02:49:06;399.52;;;373.75;;
9208;SDS011;4639;48.862;9.188;2023-07-24T02:51:32;405.50;;;378.02;;
9208;SDS011;4639;48.862;9.188;2023-07-24T02:53:58;396.42;;;370.98;;
9208;SDS011;4639;48.862;9.188;2023-07-24T02:56:23;375.40;;;351.45;;
9208;SDS011;4639;48.862;9.188;2023-07-24T02:58:49;345.58;;;324.20;;
9208;SDS011;4639;48.862;9.188;2023-07-24T03:01:14;348.30;;;326.85;;
9208;SDS011;4639;48.862;9.188;2023-07-24T03:03:40;350.27;;;328.38;;
9208;SDS011;4639;48.862;9.188;2023-07-24T03:06:06;317.17;;;297.80;;
9208;SDS011;4639;48.862;9.188;2023-07-24T03:08:32;335.70;;;314.63;;
9208;SDS011;4639;48.862;9.188;2023-07-24T03:10:58;312.85;;;293.83;;
9208;SDS011;4639;48.862;9.188;2023-07-24T03:13:24;324.77;;;304.85;;
9208;SDS011;4639;48.862;9.188;2023-07-24T03:15:56;334.10;;;312.88;;
9208;SDS011;4639;48.862;9.188;2023-07-24T03:18:23;307.05;;;287.33;;
9208;SDS011;4639;48.862;9.188;2023-07-24T03:20:49;353.27;;;330.15;;
9208;SDS011;4639;48.862;9.188;2023-07-24T03:23:15;340.23;;;318.85;;
9208;SDS011;4639;48.862;9.188;2023-07-24T03:25:41;344.17;;;323.08;;
9208;SDS011;4639;48.862;9.188;2023-07-24T03:28:06;351.52;;;330.00;;
9208;SDS011;4639;48.862;9.188;2023-07-24T03:30:32;373.05;;;348.65;;
9208;SDS011;4639;48.862;9.188;2023-07-24T03:32:58;406.10;;;381.13;;
9208;SDS011;4639;48.862;9.188;2023-07-24T03:35:23;373.23;;;348.70;;
9208;SDS011;4639;48.862;9.188;2023-07-24T03:37:49;373.70;;;348.27;;
9208;SDS011;4639;48.862;9.188;2023-07-24T03:40:15;366.20;;;341.58;;
9208;SDS011;4639;48.862;9.188;2023-07-24T03:42:40;365.60;;;341.50;;
9208;SDS011;4639;48.862;9.188;2023-07-24T03:45:07;370.30;;;346.30;;
9208;SDS011;4639;48.862;9.188;2023-07-24T03:47:33;360.80;;;337.17;;
9208;SDS011;4639;48.862;9.188;2023-07-24T03:49:59;363.20;;;340.45;;
9208;SDS011;4639;48.862;9.188;2023-07-24T03:52:24;372.77;;;349.88;;
9208;SDS011;4639;48.862;9.188;2023-07-24T03:54:51;366.83;;;344.17;;
9208;SDS011;4639;48.862;9.188;2023-07-24T03:57:16;386.25;;;361.77;;
9208;SDS011;4639;48.862;9.188;2023-07-24T03:59:42;393.00;;;369.30;;
9208;SDS011;4639;48.862;9.188;2023-07-24T04:02:08;411.55;;;386.65;;
9208;SDS011;4639;48.862;9.188;2023-07-24T04:04:33;390.67;;;367.00;;
9208;SDS011;4639;48.862;9.188;2023-07-24T04:06:59;374.45;;;351.65;;
9208;SDS011;4639;48.862;9.188;2023-07-24T04:09:25;384.85;;;361.65;;
9208;SDS011;4639;48.862;9.188;2023-07-24T04:11:50;389.02;;;365.40;;
9208;SDS011;4639;48.862;9.188;2023-07-24T04:14:16;375.65;;;353.35;;
9208;SDS011;4639;48.862;9.188;2023-07-24T04:16:41;397.27;;;373.58;;
9208;SDS011;4639;48.862;9.188;2023-07-24T04:19:07;390.83;;;367.20;;
9208;SDS011;4639;48.862;9.188;2023-07-24T04:21:33;351.75;;;328.95;;
9208;SDS011;4639;48.862;9.188;2023-07-24T04:23:59;370.40;;;347.85;;
9208;SDS011;4639;48.862;9.188;2023-07-24T04:26:24;427.95;;;401.85;;
9208;SDS011;4639;48.862;9.188;2023-07-24T04:28:50;447.85;;;420.38;;
9208;SDS011;4639;48.862;9.188;2023-07-24T04:31:15;442.65;;;415.10;;
9208;SDS011;4639;48.862;9.188;2023-07-24T04:33:41;430.00;;;402.92;;
9208;SDS011;4639;48.862;9.188;2023-07-24T04:36:07;420.60;;;394.60;;
9208;SDS011;4639;48.862;9.188;2023-07-24T04:38:32;443.65;;;416.23;;
9208;SDS011;4639;48.862;9.188;2023-07-24T04:41:00;442.45;;;415.60;;
9208;SDS011;4639;48.862;9.188;2023-07-24T04:43:26;476.45;;;447.88;;
9208;SDS011;4639;48.862;9.188;2023-07-24T04:45:52;412.17;;;386.58;;
9208;SDS011;4639;48.862;9.188;2023-07-24T04:48:18;513.95;;;483.13;;
9208;SDS011;4639;48.862;9.188;2023-07-24T04:50:43;435.60;;;409.38;;
9208;SDS011;4639;48.862;9.188;2023-07-24T04:53:09;420.05;;;393.80;;
9208;SDS011;4639;48.862;9.188;2023-07-24T04:55:34;430.50;;;403.25;;
9208;SDS011;4639;48.862;9.188;2023-07-24T04:58:00;408.23;;;382.98;;
9208;SDS011;4639;48.862;9.188;2023-07-24T05:00:25;432.33;;;404.67;;
9208;SDS011;4639;48.862;9.188;2023-07-24T05:02:51;437.10;;;409.38;;
9208;SDS011;4639;48.862;9.188;2023-07-24T05:05:17;453.73;;;425.50;;
9208;SDS011;4639;48.862;9.188;2023-07-24T05:07:43;436.48;;;408.95;;
9208;SDS011;4639;48.862;9.188;2023-07-24T05:10:08;441.17;;;414.05;;
9208;SDS011;4639;48.862;9.188;2023-07-24T05:12:34;421.35;;;395.85;;
9208;SDS011;4639;48.862;9.188;2023-07-24T05:14:59;462.80;;;434.35;;
9208;SDS011;4639;48.862;9.188;2023-07-24T05:17:25;494.83;;;465.65;;
9208;SDS011;4639;48.862;9.188;2023-07-24T05:19:50;511.52;;;480.42;;
9208;SDS011;4639;48.862;9.188;2023-07-24T05:22:16;477.95;;;449.25;;
9208;SDS011;4639;48.862;9.188;2023-07-24T05:24:41;511.23;;;479.75;;
9208;SDS011;4639;48.862;9.188;2023-07-24T05:27:07;552.78;;;518.20;;
9208;SDS011;4639;48.862;9.188;2023-07-24T05:29:33;510.42;;;479.00;;
9208;SDS011;4639;48.862;9.188;2023-07-24T05:31:58;553.50;;;519.22;;
9208;SDS011;4639;48.862;9.188;2023-07-24T05:34:24;556.08;;;521.97;;
9208;SDS011;4639;48.862;9.188;2023-07-24T05:36:50;545.83;;;513.30;;
9208;SDS011;4639;48.862;9.188;2023-07-24T05:39:16;529.97;;;498.25;;
9208;SDS011;4639;48.862;9.188;2023-07-24T05:41:42;541.55;;;509.40;;
9208;SDS011;4639;48.862;9.188;2023-07-24T05:44:07;357.15;;;335.08;;
9208;SDS011;4639;48.862;9.188;2023-07-24T05:46:33;552.22;;;518.30;;
9208;SDS011;4639;48.862;9.188;2023-07-24T05:48:59;615.45;;;575.78;;
9208;SDS011;4639;48.862;9.188;2023-07-24T05:51:26;495.08;;;456.85;;
9208;SDS011;4639;48.862;9.188;2023-07-24T05:53:52;499.63;;;460.83;;
9208;SDS011;4639;48.862;9.188;2023-07-24T05:56:17;489.35;;;452.58;;
9208;SDS011;4639;48.862;9.188;2023-07-24T05:58:43;484.13;;;445.88;;
9208;SDS011;4639;48.862;9.188;2023-07-24T06:01:09;758.30;;;648.60;;
9208;SDS011;4639;48.862;9.188;2023-07-24T06:03:35;555.53;;;513.60;;
9208;SDS011;4639;48.862;9.188;2023-07-24T06:06:01;673.80;;;622.17;;
9208;SDS011;4639;48.862;9.188;2023-07-24T06:08:27;664.35;;;613.38;;
9208;SDS011;4639;48.862;9.188;2023-07-24T06:10:55;562.95;;;518.30;;
9208;SDS011;4639;48.862;9.188;2023-07-24T06:13:21;418.15;;;387.60;;
9208;SDS011;4639;48.862;9.188;2023-07-24T06:15:47;272.95;;;254.95;;
9208;SDS011;4639;48.862;9.188;2023-07-24T06:18:15;328.48;;;305.60;;
9208;SDS011;4639;48.862;9.188;2023-07-24T06:20:41;321.85;;;299.63;;
9208;SDS011;4639;48.862;9.188;2023-07-24T06:23:07;451.30;;;416.42;;
9208;SDS011;4639;48.862;9.188;2023-07-24T06:25:32;331.48;;;309.40;;
9208;SDS011;4639;48.862;9.188;2023-07-24T06:27:58;666.13;;;610.95;;
9208;SDS011;4639;48.862;9.188;2023-07-24T06:30:24;315.55;;;293.55;;
9208;SDS011;4639;48.862;9.188;2023-07-24T06:32:49;342.35;;;318.77;;
9208;SDS011;4639;48.862;9.188;2023-07-24T06:35:15;313.10;;;291.13;;
9208;SDS011;4639;48.862;9.188;2023-07-24T06:37:40;491.95;;;456.48;;
9208;SDS011;4639;48.862;9.188;2023-07-24T06:40:08;487.95;;;452.52;;
9208;SDS011;4639;48.862;9.188;2023-07-24T06:42:35;477.30;;;439.42;;
9208;SDS011;4639;48.862;9.188;2023-07-24T06:45:00;538.75;;;493.08;;
9208;SDS011;4639;48.862;9.188;2023-07-24T06:47:26;540.53;;;496.30;;
9208;SDS011;4639;48.862;9.188;2023-07-24T06:49:51;648.65;;;595.70;;
9208;SDS011;4639;48.862;9.188;2023-07-24T06:52:17;541.78;;;499.13;;
9208;SDS011;4639;48.862;9.188;2023-07-24T06:54:43;466.38;;;432.30;;
9208;SDS011;4639;48.862;9.188;2023-07-24T06:57:09;437.20;;;405.27;;
9208;SDS011;4639;48.862;9.188;2023-07-24T06:59:34;543.17;;;503.80;;
9208;SDS011;4639;48.862;9.188;2023-07-24T07:02:00;524.65;;;485.00;;
9208;SDS011;4639;48.862;9.188;2023-07-24T07:04:28;395.27;;;364.45;;
9208;SDS011;4639;48.862;9.188;2023-07-24T07:06:54;241.73;;;224.60;;
9208;SDS011;4639;48.862;9.188;2023-07-24T07:09:20;455.67;;;421.55;;
9208;SDS011;4639;48.862;9.188;2023-07-24T07:11:45;355.55;;;330.90;;
9208;SDS011;4639;48.862;9.188;2023-07-24T07:14:13;428.77;;;395.60;;
9208;SDS011;4639;48.862;9.188;2023-07-24T07:16:41;516.03;;;477.67;;
9208;SDS011;4639;48.862;9.188;2023-07-24T07:19:06;561.33;;;520.05;;
9208;SDS011;4639;48.862;9.188;2023-07-24T07:21:34;555.58;;;516.03;;
9208;SDS011;4639;48.862;9.188;2023-07-24T07:24:00;564.22;;;523.90;;
9208;SDS011;4639;48.862;9.188;2023-07-24T07:26:25;576.72;;;535.67;;
9208;SDS011;4639;48.862;9.188;2023-07-24T07:28:54;610.33;;;565.38;;
9208;SDS011;4639;48.862;9.188;2023-07-24T07:31:20;585.97;;;544.03;;
9208;SDS011;4639;48.862;9.188;2023-07-24T07:33:46;570.15;;;530.08;;
9208;SDS011;4639;48.862;9.188;2023-07-24T07:36:12;541.97;;;503.83;;
9208;SDS011;4639;48.862;9.188;2023-07-24T07:38:37;594.45;;;551.22;;
9208;SDS011;4639;48.862;9.188;2023-07-24T07:41:04;593.45;;;550.78;;
9208;SDS011;4639;48.862;9.188;2023-07-24T07:43:30;586.42;;;544.20;;
9208;SDS011;4639;48.862;9.188;2023-07-24T07:45:56;599.95;;;556.83;;
9208;SDS011;4639;48.862;9.188;2023-07-24T07:48:23;609.63;;;564.67;;
9208;SDS011;4639;48.862;9.188;2023-07-24T07:50:51;647.22;;;597.95;;
9208;SDS011;4639;48.862;9.188;2023-07-24T07:53:17;647.97;;;599.40;;
9208;SDS011;4639;48.862;9.188;2023-07-24T07:55:43;651.67;;;602.53;;
9208;SDS011;4639;48.862;9.188;2023-07-24T07:58:08;662.15;;;612.25;;
9208;SDS011;4639;48.862;9.188;2023-07-24T08:00:34;646.20;;;596.38;;
9208;SDS011;4639;48.862;9.188;2023-07-24T08:03:00;662.80;;;613.00;;
9208;SDS011;4639;48.862;9.188;2023-07-24T08:05:25;661.08;;;611.72;;
9208;SDS011;4639;48.862;9.188;2023-07-24T08:07:51;645.40;;;598.08;;
9208;SDS011;4639;48.862;9.188;2023-07-24T08:10:17;589.45;;;546.20;;
9208;SDS011;4639;48.862;9.188;2023-07-24T08:12:42;626.70;;;579.05;;
9208;SDS011;4639;48.862;9.188;2023-07-24T08:15:08;595.03;;;551.15;;
9208;SDS011;4639;48.862;9.188;2023-07-24T08:17:34;601.90;;;557.83;;
9208;SDS011;4639;48.862;9.188;2023-07-24T08:20:03;602.35;;;557.70;;
9208;SDS011;4639;48.862;9.188;2023-07-24T08:22:29;513.08;;;474.42;;
9208;SDS011;4639;48.862;9.188;2023-07-24T08:24:55;513.00;;;474.85;;
9208;SDS011;4639;48.862;9.188;2023-07-24T08:27:20;513.47;;;475.85;;
9208;SDS011;4639;48.862;9.188;2023-07-24T08:29:46;472.55;;;436.33;;
9208;SDS011;4639;48.862;9.188;2023-07-24T08:32:18;475.13;;;439.63;;
9208;SDS011;4639;48.862;9.188;2023-07-24T08:34:44;517.42;;;476.55;;
9208;SDS011;4639;48.862;9.188;2023-07-24T08:37:10;420.00;;;388.90;;
9208;SDS011;4639;48.862;9.188;2023-07-24T08:39:36;603.83;;;550.45;;
9208;SDS011;4639;48.862;9.188;2023-07-24T08:42:11;428.10;;;395.77;;
9208;SDS011;4639;48.862;9.188;2023-07-24T08:44:37;424.98;;;392.13;;
9208;SDS011;4639;48.862;9.188;2023-07-24T08:47:04;393.38;;;362.10;;
9208;SDS011;4639;48.862;9.188;2023-07-24T08:49:31;435.48;;;401.55;;
9208;SDS011;4639;48.862;9.188;2023-07-24T08:51:58;454.77;;;419.70;;
9208;SDS011;4639;48.862;9.188;2023-07-24T08:54:26;457.83;;;421.20;;
9208;SDS011;4639;48.862;9.188;2023-07-24T08:56:52;440.30;;;405.90;;
9208;SDS011;4639;48.862;9.188;2023-07-24T08:59:17;433.92;;;399.85;;
9208;SDS011;4639;48.862;9.188;2023-07-24T09:01:43;473.58;;;434.67;;
9208;SDS011;4639;48.862;9.188;2023-07-24T09:04:09;473.35;;;435.17;;
9208;SDS011;4639;48.862;9.188;2023-07-24T09:06:37;476.73;;;436.77;;
9208;SDS011;4639;48.862;9.188;2023-07-24T09:09:11;449.20;;;412.75;;
9208;SDS011;4639;48.862;9.188;2023-07-24T09:11:45;483.58;;;443.67;;
9208;SDS011;4639;48.862;9.188;2023-07-24T09:14:19;462.08;;;424.08;;
9208;SDS011;4639;48.862;9.188;2023-07-24T09:16:46;584.60;;;538.67;;
9208;SDS011;4639;48.862;9.188;2023-07-24T09:19:18;497.00;;;457.83;;
9208;SDS011;4639;48.862;9.188;2023-07-24T09:21:46;472.92;;;434.98;;
9208;SDS011;4639;48.862;9.188;2023-07-24T09:24:12;451.98;;;416.60;;
9208;SDS011;4639;48.862;9.188;2023-07-24T09:26:52;373.35;;;345.35;;
9208;SDS011;4639;48.862;9.188;2023-07-24T09:29:18;506.20;;;463.25;;
9208;SDS011;4639;48.862;9.188;2023-07-24T09:31:44;394.60;;;364.17;;
9208;SDS011;4639;48.862;9.188;2023-07-24T09:34:17;440.02;;;406.38;;
9208;SDS011;4639;48.862;9.188;2023-07-24T09:36:43;419.65;;;387.42;;
9208;SDS011;4639;48.862;9.188;2023-07-24T09:39:09;446.95;;;411.42;;
9208;SDS011;4639;48.862;9.188;2023-07-24T09:41:37;459.42;;;423.95;;
9208;SDS011;4639;48.862;9.188;2023-07-24T09:44:03;485.75;;;445.77;;
9208;SDS011;4639;48.862;9.188;2023-07-24T09:46:29;452.85;;;417.73;;
9208;SDS011;4639;48.862;9.188;2023-07-24T09:48:56;510.95;;;468.23;;
9208;SDS011;4639;48.862;9.188;2023-07-24T09:51:23;485.83;;;447.55;;
9208;SDS011;4639;48.862;9.188;2023-07-24T09:56:26;454.20;;;420.27;;
9208;SDS011;4639;48.862;9.188;2023-07-24T09:58:53;441.35;;;407.85;;
9208;SDS011;4639;48.862;9.188;2023-07-24T10:01:20;469.17;;;433.33;;
9208;SDS011;4639;48.862;9.188;2023-07-24T10:03:47;479.83;;;442.75;;
9208;SDS011;4639;48.862;9.188;2023-07-24T10:06:14;460.13;;;425.15;;
9208;SDS011;4639;48.862;9.188;2023-07-24T10:08:40;440.77;;;406.48;;
9208;SDS011;4639;48.862;9.188;2023-07-24T10:11:13;432.30;;;400.50;;
9208;SDS011;4639;48.862;9.188;2023-07-24T10:13:42;438.90;;;405.15;;
9208;SDS011;4639;48.862;9.188;2023-07-24T10:16:09;457.75;;;422.98;;
9208;SDS011;4639;48.862;9.188;2023-07-24T10:18:35;433.55;;;400.70;;
9208;SDS011;4639;48.862;9.188;2023-07-24T10:21:09;442.38;;;408.23;;
9208;SDS011;4639;48.862;9.188;2023-07-24T10:23:35;428.40;;;396.30;;
9208;SDS011;4639;48.862;9.188;2023-07-24T10:26:05;447.95;;;413.08;;
9208;SDS011;4639;48.862;9.188;2023-07-24T10:28:32;443.83;;;410.05;;
9208;SDS011;4639;48.862;9.188;2023-07-24T10:31:06;438.55;;;405.85;;
9208;SDS011;4639;48.862;9.188;2023-07-24T10:33:34;416.95;;;385.13;;
9208;SDS011;4639;48.862;9.188;2023-07-24T10:36:06;423.85;;;391.52;;
9208;SDS011;4639;48.862;9.188;2023-07-24T10:38:41;413.27;;;382.15;;
9208;SDS011;4639;48.862;9.188;2023-07-24T10:41:08;398.58;;;368.67;;
9208;SDS011;4639;48.862;9.188;2023-07-24T10:43:42;456.83;;;421.50;;
9208;SDS011;4639;48.862;9.188;2023-07-24T10:46:09;413.50;;;382.38;;
9208;SDS011;4639;48.862;9.188;2023-07-24T10:48:35;424.85;;;393.05;;
9208;SDS011;4639;48.862;9.188;2023-07-24T10:51:06;469.60;;;434.83;;
9208;SDS011;4639;48.862;9.188;2023-07-24T10:53:34;458.77;;;425.15;;
9208;SDS011;4639;48.862;9.188;2023-07-24T10:56:01;464.33;;;430.00;;
9208;SDS011;4639;48.862;9.188;2023-07-24T10:58:30;466.98;;;431.50;;
9208;SDS011;4639;48.862;9.188;2023-07-24T11:00:56;466.05;;;430.23;;
9208;SDS011;4639;48.862;9.188;2023-07-24T11:03:22;459.48;;;424.02;;
9208;SDS011;4639;48.862;9.188;2023-07-24T11:05:49;430.20;;;397.70;;
9208;SDS011;4639;48.862;9.188;2023-07-24T11:08:15;464.67;;;429.50;;
9208;SDS011;4639;48.862;9.188;2023-07-24T11:10:46;448.27;;;414.50;;
9208;SDS011;4639;48.862;9.188;2023-07-24T11:13:13;330.45;;;305.73;;
9208;SDS011;4639;48.862;9.188;2023-07-24T11:15:42;347.42;;;324.20;;
9208;SDS011;4639;48.862;9.188;2023-07-24T11:18:07;390.50;;;364.23;;
9208;SDS011;4639;48.862;9.188;2023-07-24T11:20:36;386.45;;;360.35;;
9208;SDS011;4639;48.862;9.188;2023-07-24T11:23:09;307.98;;;286.63;;
9208;SDS011;4639;48.862;9.188;2023-07-24T11:25:35;288.60;;;269.10;;
9208;SDS011;4639;48.862;9.188;2023-07-24T11:28:01;314.50;;;293.60;;
9208;SDS011;4639;48.862;9.188;2023-07-24T11:30:29;318.92;;;297.20;;
9208;SDS011;4639;48.862;9.188;2023-07-24T11:32:56;327.80;;;304.83;;
9208;SDS011;4639;48.862;9.188;2023-07-24T11:35:24;269.60;;;251.35;;
9208;SDS011;4639;48.862;9.188;2023-07-24T11:37:50;314.63;;;293.85;;
9208;SDS011;4639;48.862;9.188;2023-07-24T11:40:16;346.65;;;323.80;;
9208;SDS011;4639;48.862;9.188;2023-07-24T11:42:45;337.48;;;314.58;;
9208;SDS011;4639;48.862;9.188;2023-07-24T11:45:12;350.42;;;325.48;;
9208;SDS011;4639;48.862;9.188;2023-07-24T11:47:41;526.55;;;482.63;;
9208;SDS011;4639;48.862;9.188;2023-07-24T11:50:11;372.27;;;345.00;;
9208;SDS011;4639;48.862;9.188;2023-07-24T11:52:38;361.25;;;334.75;;
9208;SDS011;4639;48.862;9.188;2023-07-24T11:55:14;367.33;;;340.13;;
9208;SDS011;4639;48.862;9.188;2023-07-24T11:57:43;353.70;;;328.77;;
9208;SDS011;4639;48.862;9.188;2023-07-24T12:00:20;343.40;;;319.85;;
9208;SDS011;4639;48.862;9.188;2023-07-24T12:02:46;332.10;;;309.00;;
9208;SDS011;4639;48.862;9.188;2023-07-24T12:05:12;330.90;;;308.02;;
9208;SDS011;4639;48.862;9.188;2023-07-24T12:07:37;339.02;;;316.38;;
9208;SDS011;4639;48.862;9.188;2023-07-24T12:10:04;369.52;;;343.85;;
9208;SDS011;4639;48.862;9.188;2023-07-24T12:15:05;311.08;;;289.02;;
9208;SDS011;4639;48.862;9.188;2023-07-24T12:17:31;351.50;;;326.20;;
9208;SDS011;4639;48.862;9.188;2023-07-24T12:19:56;342.75;;;318.40;;
9208;SDS011;4639;48.862;9.188;2023-07-24T12:22:25;314.88;;;291.52;;
9208;SDS011;4639;48.862;9.188;2023-07-24T12:24:50;330.73;;;306.65;;
9208;SDS011;4639;48.862;9.188;2023-07-24T12:27:16;312.17;;;289.15;;
9208;SDS011;4639;48.862;9.188;2023-07-24T12:29:42;376.00;;;348.42;;
9208;SDS011;4639;48.862;9.188;2023-07-24T12:32:07;326.73;;;303.55;;
9208;SDS011;4639;48.862;9.188;2023-07-24T12:34:33;332.52;;;309.10;;
9208;SDS011;4639;48.862;9.188;2023-07-24T12:36:58;330.35;;;308.15;;
9208;SDS011;4639;48.862;9.188;2023-07-24T12:39:24;318.05;;;294.98;;
9208;SDS011;4639;48.862;9.188;2023-07-24T12:41:49;317.92;;;294.98;;
9208;SDS011;4639;48.862;9.188;2023-07-24T12:44:15;305.05;;;282.80;;
9208;SDS011;4639;48.862;9.188;2023-07-24T12:46:40;314.42;;;292.52;;
9208;SDS011;4639;48.862;9.188;2023-07-24T12:49:06;506.02;;;465.45;;
9208;SDS011;4639;48.862;9.188;2023-07-24T12:51:32;299.33;;;278.55;;
9208;SDS011;4639;48.862;9.188;2023-07-24T12:53:57;310.42;;;287.75;;
9208;SDS011;4639;48.862;9.188;2023-07-24T12:56:23;288.58;;;269.55;;
9208;SDS011;4639;48.862;9.188;2023-07-24T12:58:48;301.48;;;282.00;;
9208;SDS011;4639;48.862;9.188;2023-07-24T13:01:14;283.48;;;264.95;;
9208;SDS011;4639;48.862;9.188;2023-07-24T13:03:40;259.92;;;242.43;;
9208;SDS011;4639;48.862;9.188;2023-07-24T13:06:05;288.27;;;269.10;;
9208;SDS011;4639;48.862;9.188;2023-07-24T13:08:31;302.52;;;282.52;;
9208;SDS011;4639;48.862;9.188;2023-07-24T13:10:56;301.52;;;282.02;;
9208;SDS011;4639;48.862;9.188;2023-07-24T13:13:22;306.27;;;285.67;;
9208;SDS011;4639;48.862;9.188;2023-07-24T13:15:47;293.50;;;274.30;;
9208;SDS011;4639;48.862;9.188;2023-07-24T13:18:16;274.80;;;256.95;;
9208;SDS011;4639;48.862;9.188;2023-07-24T13:20:42;292.55;;;273.42;;
9208;SDS011;4639;48.862;9.188;2023-07-24T13:23:07;296.10;;;276.63;;
9208;SDS011;4639;48.862;9.188;2023-07-24T13:25:33;299.13;;;279.38;;
9208;SDS011;4639;48.862;9.188;2023-07-24T13:27:59;281.90;;;263.45;;
9208;SDS011;4639;48.862;9.188;2023-07-24T13:30:24;303.42;;;283.55;;
9208;SDS011;4639;48.862;9.188;2023-07-24T13:32:50;308.77;;;288.70;;
9208;SDS011;4639;48.862;9.188;2023-07-24T13:35:15;319.63;;;299.27;;
9208;SDS011;4639;48.862;9.188;2023-07-24T13:37:41;321.80;;;300.45;;
9208;SDS011;4639;48.862;9.188;2023-07-24T13:40:07;304.85;;;284.95;;
9208;SDS011;4639;48.862;9.188;2023-07-24T13:42:33;315.33;;;295.25;;
9208;SDS011;4639;48.862;9.188;2023-07-24T13:44:59;326.20;;;305.90;;
9208;SDS011;4639;48.862;9.188;2023-07-24T13:47:24;334.50;;;312.70;;
9208;SDS011;4639;48.862;9.188;2023-07-24T13:49:50;325.67;;;302.50;;
9208;SDS011;4639;48.862;9.188;2023-07-24T13:52:15;299.08;;;278.95;;
9208;SDS011;4639;48.862;9.188;2023-07-24T13:54:41;326.20;;;303.27;;
9208;SDS011;4639;48.862;9.188;2023-07-24T13:57:06;294.98;;;275.38;;
9208;SDS011;4639;48.862;9.188;2023-07-24T13:59:33;318.70;;;296.92;;
9208;SDS011;4639;48.862;9.188;2023-07-24T14:01:59;286.30;;;266.75;;
9208;SDS011;4639;48.862;9.188;2023-07-24T14:04:25;349.85;;;326.38;;
9208;SDS011;4639;48.862;9.188;2023-07-24T14:06:50;361.63;;;338.02;;
9208;SDS011;4639;48.862;9.188;2023-07-24T14:09:16;381.27;;;355.30;;
9208;SDS011;4639;48.862;9.188;2023-07-24T14:11:42;302.35;;;283.23;;
9208;SDS011;4639;48.862;9.188;2023-07-24T14:14:07;205.50;;;193.25;;
9208;SDS011;4639;48.862;9.188;2023-07-24T14:16:33;199.90;;;188.57;;
9208;SDS011;4639;48.862;9.188;2023-07-24T14:18:59;206.23;;;194.18;;
9208;SDS011;4639;48.862;9.188;2023-07-24T14:21:25;196.00;;;184.52;;